sensor_id;sensor_type;location;lat;lon;timestamp;temperature;humidity
32749;DHT22;19119;52.474;13.710;2023-06-10T00:02:05;16.00;99.90
32749;DHT22;19119;52.474;13.710;2023-06-10T00:04:31;16.00;99.90
32749;DHT22;19119;52.474;13.710;2023-06-10T00:06:56;16.00;99.90
32749;DHT22;19119;52.474;13.710;2023-06-10T00:09:22;16.00;99.90
32749;DHT22;19119;52.474;13.710;2023-06-10T00:11:48;15.90;99.90
32749;DHT22;19119;52.474;13.710;2023-06-10T00:14:14;15.80;99.90
32749;DHT22;19119;52.474;13.710;2023-06-10T00:16:39;15.80;99.90
32749;DHT22;19119;52.474;13.710;2023-06-10T00:19:05;15.80;99.90
32749;DHT22;19119;52.474;13.710;2023-06-10T00:21:33;15.70;99.90
32749;DHT22;19119;52.474;13.710;2023-06-10T00:24:03;15.80;99.90
32749;DHT22;19119;52.474;13.710;2023-06-10T00:26:31;15.70;99.90
32749;DHT22;19119;52.474;13.710;2023-06-10T00:28:56;15.60;99.90
32749;DHT22;19119;52.474;13.710;2023-06-10T00:31:22;15.30;99.90
32749;DHT22;19119;52.474;13.710;2023-06-10T00:33:47;15.40;99.90
32749;DHT22;19119;52.474;13.710;2023-06-10T00:36:13;15.40;99.90
32749;DHT22;19119;52.474;13.710;2023-06-10T00:38:38;15.50;99.90
32749;DHT22;19119;52.474;13.710;2023-06-10T00:41:06;15.30;99.90
32749;DHT22;19119;52.474;13.710;2023-06-10T00:43:31;15.40;99.90
32749;DHT22;19119;52.474;13.710;2023-06-10T00:45:57;15.30;99.90
32749;DHT22;19119;52.474;13.710;2023-06-10T00:48:23;15.60;99.90
32749;DHT22;19119;52.474;13.710;2023-06-10T00:50:49;15.50;99.90
32749;DHT22;19119;52.474;13.710;2023-06-10T00:53:14;15.40;99.90
32749;DHT22;19119;52.474;13.710;2023-06-10T00:55:41;15.50;99.90
32749;DHT22;19119;52.474;13.710;2023-06-10T00:58:07;15.30;99.90
32749;DHT22;19119;52.474;13.710;2023-06-10T01:00:33;15.30;99.90
32749;DHT22;19119;52.474;13.710;2023-06-10T01:02:58;15.20;99.90
32749;DHT22;19119;52.474;13.710;2023-06-10T01:05:24;15.20;99.90
32749;DHT22;19119;52.474;13.710;2023-06-10T01:10:36;15.20;99.90
32749;DHT22;19119;52.474;13.710;2023-06-10T01:13:05;15.20;99.90
32749;DHT22;19119;52.474;13.710;2023-06-10T01:15:33;15.10;99.90
32749;DHT22;19119;52.474;13.710;2023-06-10T01:18:00;15.20;99.90
32749;DHT22;19119;52.474;13.710;2023-06-10T01:20:31;15.20;99.90
32749;DHT22;19119;52.474;13.710;2023-06-10T01:22:58;15.00;99.90
32749;DHT22;19119;52.474;13.710;2023-06-10T01:25:25;15.00;99.90
32749;DHT22;19119;52.474;13.710;2023-06-10T01:33:31;14.90;99.90
32749;DHT22;19119;52.474;13.710;2023-06-10T01:35:59;14.90;99.90
32749;DHT22;19119;52.474;13.710;2023-06-10T01:38:27;14.90;99.90
32749;DHT22;19119;52.474;13.710;2023-06-10T01:40:55;14.70;99.90
32749;DHT22;19119;52.474;13.710;2023-06-10T01:43:22;14.70;99.90
32749;DHT22;19119;52.474;13.710;2023-06-10T01:45:47;14.70;99.90
32749;DHT22;19119;52.474;13.710;2023-06-10T01:48:13;14.70;99.90
32749;DHT22;19119;52.474;13.710;2023-06-10T01:50:39;14.80;99.90
32749;DHT22;19119;52.474;13.710;2023-06-10T01:53:05;14.70;99.90
32749;DHT22;19119;52.474;13.710;2023-06-10T01:55:33;14.70;99.90
32749;DHT22;19119;52.474;13.710;2023-06-10T01:57:59;14.70;99.90
32749;DHT22;19119;52.474;13.710;2023-06-10T02:00:24;14.60;99.90
32749;DHT22;19119;52.474;13.710;2023-06-10T02:02:50;14.60;99.90
32749;DHT22;19119;52.474;13.710;2023-06-10T02:05:16;14.50;99.90
32749;DHT22;19119;52.474;13.710;2023-06-10T02:07:41;14.60;99.90
32749;DHT22;19119;52.474;13.710;2023-06-10T02:10:07;14.60;99.90
32749;DHT22;19119;52.474;13.710;2023-06-10T02:12:33;14.50;99.90
32749;DHT22;19119;52.474;13.710;2023-06-10T02:14:59;14.50;99.90
32749;DHT22;19119;52.474;13.710;2023-06-10T02:17:24;14.50;99.90
32749;DHT22;19119;52.474;13.710;2023-06-10T02:19:50;14.60;99.90
32749;DHT22;19119;52.474;13.710;2023-06-10T02:22:22;14.40;99.90
32749;DHT22;19119;52.474;13.710;2023-06-10T02:24:48;14.50;99.90
32749;DHT22;19119;52.474;13.710;2023-06-10T02:27:15;14.50;99.90
32749;DHT22;19119;52.474;13.710;2023-06-10T02:29:41;14.50;99.90
32749;DHT22;19119;52.474;13.710;2023-06-10T02:32:07;14.50;99.90
32749;DHT22;19119;52.474;13.710;2023-06-10T02:34:33;14.50;99.90
32749;DHT22;19119;52.474;13.710;2023-06-10T02:36:59;14.40;99.90
32749;DHT22;19119;52.474;13.710;2023-06-10T02:39:24;14.40;99.90
32749;DHT22;19119;52.474;13.710;2023-06-10T02:41:50;14.20;99.90
32749;DHT22;19119;52.474;13.710;2023-06-10T02:44:18;14.30;99.90
32749;DHT22;19119;52.474;13.710;2023-06-10T02:46:43;14.20;99.90
32749;DHT22;19119;52.474;13.710;2023-06-10T02:49:09;14.20;99.90
32749;DHT22;19119;52.474;13.710;2023-06-10T02:51:34;14.20;99.90
32749;DHT22;19119;52.474;13.710;2023-06-10T02:54:01;14.20;99.90
32749;DHT22;19119;52.474;13.710;2023-06-10T02:56:27;14.30;99.90
32749;DHT22;19119;52.474;13.710;2023-06-10T02:58:52;14.10;99.90
32749;DHT22;19119;52.474;13.710;2023-06-10T03:01:18;14.20;99.90
32749;DHT22;19119;52.474;13.710;2023-06-10T03:03:44;14.10;99.90
32749;DHT22;19119;52.474;13.710;2023-06-10T03:06:12;14.00;99.90
32749;DHT22;19119;52.474;13.710;2023-06-10T03:08:38;14.10;99.90
32749;DHT22;19119;52.474;13.710;2023-06-10T03:11:04;14.10;99.90
32749;DHT22;19119;52.474;13.710;2023-06-10T03:13:29;14.20;99.90
32749;DHT22;19119;52.474;13.710;2023-06-10T03:15:55;14.20;99.90
32749;DHT22;19119;52.474;13.710;2023-06-10T03:18:20;14.30;99.90
32749;DHT22;19119;52.474;13.710;2023-06-10T03:20:48;14.20;99.90
32749;DHT22;19119;52.474;13.710;2023-06-10T03:23:13;14.20;99.90
32749;DHT22;19119;52.474;13.710;2023-06-10T03:25:41;14.20;99.90
32749;DHT22;19119;52.474;13.710;2023-06-10T03:28:06;14.10;99.90
32749;DHT22;19119;52.474;13.710;2023-06-10T03:30:32;14.20;99.90
32749;DHT22;19119;52.474;13.710;2023-06-10T03:32:57;14.20;99.90
32749;DHT22;19119;52.474;13.710;2023-06-10T03:35:23;14.20;99.90
32749;DHT22;19119;52.474;13.710;2023-06-10T03:37:48;14.30;99.90
32749;DHT22;19119;52.474;13.710;2023-06-10T03:40:14;14.40;99.90
32749;DHT22;19119;52.474;13.710;2023-06-10T03:42:40;14.30;99.90
32749;DHT22;19119;52.474;13.710;2023-06-10T03:45:06;14.30;99.90
32749;DHT22;19119;52.474;13.710;2023-06-10T03:47:35;14.40;99.90
32749;DHT22;19119;52.474;13.710;2023-06-10T03:50:05;14.30;99.90
32749;DHT22;19119;52.474;13.710;2023-06-10T03:52:31;14.20;99.90
32749;DHT22;19119;52.474;13.710;2023-06-10T03:54:56;14.30;99.90
32749;DHT22;19119;52.474;13.710;2023-06-10T03:57:22;14.40;99.90
32749;DHT22;19119;52.474;13.710;2023-06-10T03:59:47;14.50;99.90
32749;DHT22;19119;52.474;13.710;2023-06-10T04:02:13;14.60;99.90
32749;DHT22;19119;52.474;13.710;2023-06-10T04:04:39;14.50;99.90
32749;DHT22;19119;52.474;13.710;2023-06-10T04:07:05;14.60;99.90
32749;DHT22;19119;52.474;13.710;2023-06-10T04:09:30;14.70;99.90
32749;DHT22;19119;52.474;13.710;2023-06-10T04:11:56;14.70;99.90
32749;DHT22;19119;52.474;13.710;2023-06-10T04:14:21;14.80;99.90
32749;DHT22;19119;52.474;13.710;2023-06-10T04:16:47;14.90;99.90
32749;DHT22;19119;52.474;13.710;2023-06-10T04:19:13;15.30;99.90
32749;DHT22;19119;52.474;13.710;2023-06-10T04:21:38;15.60;99.90
32749;DHT22;19119;52.474;13.710;2023-06-10T04:24:04;15.80;99.90
32749;DHT22;19119;52.474;13.710;2023-06-10T04:26:30;16.10;99.90
32749;DHT22;19119;52.474;13.710;2023-06-10T04:28:55;16.30;99.90
32749;DHT22;19119;52.474;13.710;2023-06-10T04:31:21;16.60;99.90
32749;DHT22;19119;52.474;13.710;2023-06-10T04:33:46;16.70;99.90
32749;DHT22;19119;52.474;13.710;2023-06-10T04:36:12;17.00;99.90
32749;DHT22;19119;52.474;13.710;2023-06-10T04:38:37;17.10;99.90
32749;DHT22;19119;52.474;13.710;2023-06-10T04:41:03;17.50;99.90
32749;DHT22;19119;52.474;13.710;2023-06-10T04:43:29;17.80;99.90
32749;DHT22;19119;52.474;13.710;2023-06-10T04:45:55;18.00;99.90
32749;DHT22;19119;52.474;13.710;2023-06-10T04:48:21;18.20;99.90
32749;DHT22;19119;52.474;13.710;2023-06-10T04:50:47;18.40;99.90
32749;DHT22;19119;52.474;13.710;2023-06-10T04:53:12;18.60;99.90
32749;DHT22;19119;52.474;13.710;2023-06-10T04:55:38;18.80;99.90
32749;DHT22;19119;52.474;13.710;2023-06-10T04:58:03;18.90;99.90
32749;DHT22;19119;52.474;13.710;2023-06-10T05:00:29;19.00;99.90
32749;DHT22;19119;52.474;13.710;2023-06-10T05:02:54;19.30;99.90
32749;DHT22;19119;52.474;13.710;2023-06-10T05:05:21;19.50;99.90
32749;DHT22;19119;52.474;13.710;2023-06-10T05:07:47;19.90;99.90
32749;DHT22;19119;52.474;13.710;2023-06-10T05:10:12;19.90;99.90
32749;DHT22;19119;52.474;13.710;2023-06-10T05:12:38;20.10;99.90
32749;DHT22;19119;52.474;13.710;2023-06-10T05:15:05;20.20;99.90
32749;DHT22;19119;52.474;13.710;2023-06-10T05:17:31;20.60;99.90
32749;DHT22;19119;52.474;13.710;2023-06-10T05:19:57;20.50;99.90
32749;DHT22;19119;52.474;13.710;2023-06-10T05:22:22;20.30;99.90
32749;DHT22;19119;52.474;13.710;2023-06-10T05:24:50;20.40;99.90
32749;DHT22;19119;52.474;13.710;2023-06-10T05:27:16;20.30;99.90
32749;DHT22;19119;52.474;13.710;2023-06-10T05:29:42;20.30;99.90
32749;DHT22;19119;52.474;13.710;2023-06-10T05:32:08;20.40;99.90
32749;DHT22;19119;52.474;13.710;2023-06-10T05:34:33;20.60;99.90
32749;DHT22;19119;52.474;13.710;2023-06-10T05:36:59;20.80;99.90
32749;DHT22;19119;52.474;13.710;2023-06-10T05:39:24;20.70;99.90
32749;DHT22;19119;52.474;13.710;2023-06-10T05:41:50;20.60;99.90
32749;DHT22;19119;52.474;13.710;2023-06-10T05:44:16;20.90;99.90
32749;DHT22;19119;52.474;13.710;2023-06-10T05:46:41;21.20;99.90
32749;DHT22;19119;52.474;13.710;2023-06-10T05:49:07;21.10;99.90
32749;DHT22;19119;52.474;13.710;2023-06-10T05:51:32;20.80;99.90
32749;DHT22;19119;52.474;13.710;2023-06-10T05:53:58;20.90;99.90
32749;DHT22;19119;52.474;13.710;2023-06-10T05:56:24;21.00;99.90
32749;DHT22;19119;52.474;13.710;2023-06-10T05:58:51;20.70;99.90
32749;DHT22;19119;52.474;13.710;2023-06-10T06:01:16;20.80;99.90
32749;DHT22;19119;52.474;13.710;2023-06-10T06:03:42;20.80;99.90
32749;DHT22;19119;52.474;13.710;2023-06-10T06:06:08;20.60;99.90
32749;DHT22;19119;52.474;13.710;2023-06-10T06:08:33;20.40;99.90
32749;DHT22;19119;52.474;13.710;2023-06-10T06:10:59;20.20;99.90
32749;DHT22;19119;52.474;13.710;2023-06-10T06:13:24;20.10;99.90
32749;DHT22;19119;52.474;13.710;2023-06-10T06:15:50;20.00;99.90
32749;DHT22;19119;52.474;13.710;2023-06-10T06:18:16;20.00;99.90
32749;DHT22;19119;52.474;13.710;2023-06-10T06:20:41;19.90;99.90
32749;DHT22;19119;52.474;13.710;2023-06-10T06:23:07;20.10;99.90
32749;DHT22;19119;52.474;13.710;2023-06-10T06:25:35;20.40;99.90
32749;DHT22;19119;52.474;13.710;2023-06-10T06:28:01;20.70;99.90
32749;DHT22;19119;52.474;13.710;2023-06-10T06:30:27;20.80;99.90
32749;DHT22;19119;52.474;13.710;2023-06-10T06:32:52;20.90;99.90
32749;DHT22;19119;52.474;13.710;2023-06-10T06:35:18;20.70;99.90
32749;DHT22;19119;52.474;13.710;2023-06-10T06:37:44;20.90;99.90
32749;DHT22;19119;52.474;13.710;2023-06-10T06:40:10;21.10;99.90
32749;DHT22;19119;52.474;13.710;2023-06-10T06:42:35;21.40;99.90
32749;DHT22;19119;52.474;13.710;2023-06-10T06:45:01;21.60;99.90
32749;DHT22;19119;52.474;13.710;2023-06-10T06:47:27;21.70;99.90
32749;DHT22;19119;52.474;13.710;2023-06-10T06:49:53;22.20;99.90
32749;DHT22;19119;52.474;13.710;2023-06-10T06:52:18;22.40;99.90
32749;DHT22;19119;52.474;13.710;2023-06-10T06:54:44;22.60;99.90
32749;DHT22;19119;52.474;13.710;2023-06-10T06:57:10;22.80;99.60
32749;DHT22;19119;52.474;13.710;2023-06-10T06:59:35;22.90;99.30
32749;DHT22;19119;52.474;13.710;2023-06-10T07:02:03;22.90;99.40
32749;DHT22;19119;52.474;13.710;2023-06-10T07:04:28;23.10;99.20
32749;DHT22;19119;52.474;13.710;2023-06-10T07:06:54;23.10;98.90
32749;DHT22;19119;52.474;13.710;2023-06-10T07:09:19;23.30;98.70
32749;DHT22;19119;52.474;13.710;2023-06-10T07:11:45;23.70;98.70
32749;DHT22;19119;52.474;13.710;2023-06-10T07:14:10;23.50;98.60
32749;DHT22;19119;52.474;13.710;2023-06-10T07:16:36;23.60;98.70
32749;DHT22;19119;52.474;13.710;2023-06-10T07:19:02;23.70;98.80
32749;DHT22;19119;52.474;13.710;2023-06-10T07:21:27;23.50;98.40
32749;DHT22;19119;52.474;13.710;2023-06-10T07:23:54;24.10;98.10
32749;DHT22;19119;52.474;13.710;2023-06-10T07:26:21;23.90;97.70
32749;DHT22;19119;52.474;13.710;2023-06-10T07:28:46;23.90;97.80
32749;DHT22;19119;52.474;13.710;2023-06-10T07:31:12;24.10;98.10
32749;DHT22;19119;52.474;13.710;2023-06-10T07:33:37;24.10;97.70
32749;DHT22;19119;52.474;13.710;2023-06-10T07:36:06;24.10;97.50
32749;DHT22;19119;52.474;13.710;2023-06-10T07:38:32;24.00;97.30
32749;DHT22;19119;52.474;13.710;2023-06-10T07:40:58;23.70;97.90
32749;DHT22;19119;52.474;13.710;2023-06-10T07:43:24;23.40;98.20
32749;DHT22;19119;52.474;13.710;2023-06-10T07:45:50;23.30;97.60
32749;DHT22;19119;52.474;13.710;2023-06-10T07:48:15;23.80;97.60
32749;DHT22;19119;52.474;13.710;2023-06-10T07:50:41;24.10;97.80
32749;DHT22;19119;52.474;13.710;2023-06-10T07:53:07;24.50;97.60
32749;DHT22;19119;52.474;13.710;2023-06-10T07:55:32;24.90;97.30
32749;DHT22;19119;52.474;13.710;2023-06-10T07:57:58;25.20;96.60
32749;DHT22;19119;52.474;13.710;2023-06-10T08:00:24;25.10;96.60
32749;DHT22;19119;52.474;13.710;2023-06-10T08:02:50;25.10;96.50
32749;DHT22;19119;52.474;13.710;2023-06-10T08:05:16;24.90;96.40
32749;DHT22;19119;52.474;13.710;2023-06-10T08:07:42;25.00;96.60
32749;DHT22;19119;52.474;13.710;2023-06-10T08:10:08;25.10;96.60
32749;DHT22;19119;52.474;13.710;2023-06-10T08:12:34;25.10;96.40
32749;DHT22;19119;52.474;13.710;2023-06-10T08:15:00;25.20;96.10
32749;DHT22;19119;52.474;13.710;2023-06-10T08:17:26;25.60;96.10
32749;DHT22;19119;52.474;13.710;2023-06-10T08:19:51;25.80;95.40
32749;DHT22;19119;52.474;13.710;2023-06-10T08:22:17;26.00;95.40
32749;DHT22;19119;52.474;13.710;2023-06-10T08:24:42;25.80;95.40
32749;DHT22;19119;52.474;13.710;2023-06-10T08:27:08;25.80;95.00
32749;DHT22;19119;52.474;13.710;2023-06-10T08:29:34;26.00;95.20
32749;DHT22;19119;52.474;13.710;2023-06-10T08:32:00;26.20;94.90
32749;DHT22;19119;52.474;13.710;2023-06-10T08:34:25;26.40;94.90
32749;DHT22;19119;52.474;13.710;2023-06-10T08:36:51;26.50;94.90
32749;DHT22;19119;52.474;13.710;2023-06-10T08:39:19;26.10;94.50
32749;DHT22;19119;52.474;13.710;2023-06-10T08:41:57;26.50;94.70
32749;DHT22;19119;52.474;13.710;2023-06-10T08:44:30;26.80;94.20
32749;DHT22;19119;52.474;13.710;2023-06-10T08:47:00;27.20;94.00
32749;DHT22;19119;52.474;13.710;2023-06-10T08:49:34;27.80;93.90
32749;DHT22;19119;52.474;13.710;2023-06-10T08:52:03;28.30;92.90
32749;DHT22;19119;52.474;13.710;2023-06-10T08:54:32;28.50;93.10
32749;DHT22;19119;52.474;13.710;2023-06-10T08:57:05;28.40;93.00
32749;DHT22;19119;52.474;13.710;2023-06-10T08:59:32;28.60;91.60
32749;DHT22;19119;52.474;13.710;2023-06-10T09:01:58;28.80;92.00
32749;DHT22;19119;52.474;13.710;2023-06-10T09:04:24;28.30;91.30
32749;DHT22;19119;52.474;13.710;2023-06-10T09:06:51;28.20;91.50
32749;DHT22;19119;52.474;13.710;2023-06-10T09:09:17;28.30;91.20
32749;DHT22;19119;52.474;13.710;2023-06-10T09:11:45;27.60;91.40
32749;DHT22;19119;52.474;13.710;2023-06-10T09:14:11;28.20;91.30
32749;DHT22;19119;52.474;13.710;2023-06-10T09:16:38;28.70;91.20
32749;DHT22;19119;52.474;13.710;2023-06-10T09:19:04;29.20;90.60
32749;DHT22;19119;52.474;13.710;2023-06-10T09:21:34;29.20;90.60
32749;DHT22;19119;52.474;13.710;2023-06-10T09:24:01;29.10;90.40
32749;DHT22;19119;52.474;13.710;2023-06-10T09:26:30;29.10;90.50
32749;DHT22;19119;52.474;13.710;2023-06-10T09:29:06;29.20;90.20
32749;DHT22;19119;52.474;13.710;2023-06-10T09:31:38;29.00;90.10
32749;DHT22;19119;52.474;13.710;2023-06-10T09:36:36;29.30;90.00
32749;DHT22;19119;52.474;13.710;2023-06-10T09:39:02;29.30;90.00
32749;DHT22;19119;52.474;13.710;2023-06-10T09:41:35;28.80;89.10
32749;DHT22;19119;52.474;13.710;2023-06-10T09:44:01;28.40;90.00
32749;DHT22;19119;52.474;13.710;2023-06-10T09:46:31;28.30;89.60
32749;DHT22;19119;52.474;13.710;2023-06-10T09:49:00;28.40;90.00
32749;DHT22;19119;52.474;13.710;2023-06-10T09:51:25;28.60;90.40
32749;DHT22;19119;52.474;13.710;2023-06-10T09:53:52;28.80;89.80
32749;DHT22;19119;52.474;13.710;2023-06-10T09:56:18;29.10;89.60
32749;DHT22;19119;52.474;13.710;2023-06-10T09:58:44;29.70;87.50
32749;DHT22;19119;52.474;13.710;2023-06-10T10:01:13;29.10;89.10
32749;DHT22;19119;52.474;13.710;2023-06-10T10:03:47;29.10;90.00
32749;DHT22;19119;52.474;13.710;2023-06-10T10:06:14;28.40;90.20
32749;DHT22;19119;52.474;13.710;2023-06-10T10:08:41;28.10;90.70
32749;DHT22;19119;52.474;13.710;2023-06-10T10:11:07;28.20;90.60
32749;DHT22;19119;52.474;13.710;2023-06-10T10:13:35;27.90;89.90
32749;DHT22;19119;52.474;13.710;2023-06-10T10:16:06;26.90;90.20
32749;DHT22;19119;52.474;13.710;2023-06-10T10:18:35;26.70;90.60
32749;DHT22;19119;52.474;13.710;2023-06-10T10:21:07;26.80;90.50
32749;DHT22;19119;52.474;13.710;2023-06-10T10:26:10;27.70;89.90
32749;DHT22;19119;52.474;13.710;2023-06-10T10:28:48;28.30;88.80
32749;DHT22;19119;52.474;13.710;2023-06-10T10:31:18;28.50;89.80
32749;DHT22;19119;52.474;13.710;2023-06-10T10:33:50;28.60;87.60
32749;DHT22;19119;52.474;13.710;2023-06-10T10:36:18;28.90;87.20
32749;DHT22;19119;52.474;13.710;2023-06-10T10:38:45;28.90;86.10
32749;DHT22;19119;52.474;13.710;2023-06-10T10:41:13;29.10;85.70
32749;DHT22;19119;52.474;13.710;2023-06-10T10:43:40;28.80;85.80
32749;DHT22;19119;52.474;13.710;2023-06-10T10:46:12;28.90;86.10
32749;DHT22;19119;52.474;13.710;2023-06-10T10:48:38;28.90;85.80
32749;DHT22;19119;52.474;13.710;2023-06-10T10:51:06;29.10;85.60
32749;DHT22;19119;52.474;13.710;2023-06-10T10:53:32;29.80;84.30
32749;DHT22;19119;52.474;13.710;2023-06-10T10:56:06;29.80;84.80
32749;DHT22;19119;52.474;13.710;2023-06-10T10:58:32;29.40;83.70
32749;DHT22;19119;52.474;13.710;2023-06-10T11:00:58;28.70;85.10
32749;DHT22;19119;52.474;13.710;2023-06-10T11:03:28;29.40;85.10
32749;DHT22;19119;52.474;13.710;2023-06-10T11:05:58;28.70;84.00
32749;DHT22;19119;52.474;13.710;2023-06-10T11:10:58;29.20;84.20
32749;DHT22;19119;52.474;13.710;2023-06-10T11:13:25;29.50;84.70
32749;DHT22;19119;52.474;13.710;2023-06-10T11:15:52;29.30;83.20
32749;DHT22;19119;52.474;13.710;2023-06-10T11:31:27;28.90;85.80
32749;DHT22;19119;52.474;13.710;2023-06-10T11:33:55;29.20;86.10
32749;DHT22;19119;52.474;13.710;2023-06-10T11:36:24;29.40;85.30
32749;DHT22;19119;52.474;13.710;2023-06-10T11:38:55;29.20;86.00
32749;DHT22;19119;52.474;13.710;2023-06-10T11:41:20;29.50;85.90
32749;DHT22;19119;52.474;13.710;2023-06-10T11:43:46;29.70;86.00
32749;DHT22;19119;52.474;13.710;2023-06-10T11:46:14;29.90;86.00
32749;DHT22;19119;52.474;13.710;2023-06-10T11:48:48;29.90;86.90
32749;DHT22;19119;52.474;13.710;2023-06-10T11:51:13;29.30;87.20
32749;DHT22;19119;52.474;13.710;2023-06-10T11:53:39;29.50;87.60
32749;DHT22;19119;52.474;13.710;2023-06-10T11:56:04;29.60;87.20
32749;DHT22;19119;52.474;13.710;2023-06-10T11:58:30;30.10;86.90
32749;DHT22;19119;52.474;13.710;2023-06-10T12:00:56;30.20;85.80
32749;DHT22;19119;52.474;13.710;2023-06-10T12:03:23;30.40;86.00
32749;DHT22;19119;52.474;13.710;2023-06-10T12:06:05;30.60;86.00
32749;DHT22;19119;52.474;13.710;2023-06-10T12:08:35;30.50;85.40
32749;DHT22;19119;52.474;13.710;2023-06-10T12:11:06;30.40;85.80
32749;DHT22;19119;52.474;13.710;2023-06-10T12:13:32;30.20;85.50
32749;DHT22;19119;52.474;13.710;2023-06-10T12:16:11;30.10;85.60
32749;DHT22;19119;52.474;13.710;2023-06-10T12:18:36;30.20;86.10
32749;DHT22;19119;52.474;13.710;2023-06-10T12:21:02;30.00;85.20
32749;DHT22;19119;52.474;13.710;2023-06-10T12:23:29;30.00;86.00
32749;DHT22;19119;52.474;13.710;2023-06-10T12:25:55;30.20;86.70
32749;DHT22;19119;52.474;13.710;2023-06-10T12:28:25;29.80;86.60
32749;DHT22;19119;52.474;13.710;2023-06-10T12:30:51;30.10;88.00
32749;DHT22;19119;52.474;13.710;2023-06-10T12:33:20;30.50;85.80
32749;DHT22;19119;52.474;13.710;2023-06-10T12:35:51;30.40;85.50
32749;DHT22;19119;52.474;13.710;2023-06-10T12:38:24;30.60;84.50
32749;DHT22;19119;52.474;13.710;2023-06-10T12:40:50;31.00;85.50
32749;DHT22;19119;52.474;13.710;2023-06-10T12:43:25;31.10;83.50
32749;DHT22;19119;52.474;13.710;2023-06-10T12:45:51;30.90;83.10
32749;DHT22;19119;52.474;13.710;2023-06-10T12:48:24;30.90;79.70
32749;DHT22;19119;52.474;13.710;2023-06-10T12:50:55;30.70;79.20
32749;DHT22;19119;52.474;13.710;2023-06-10T12:53:21;30.70;77.80
32749;DHT22;19119;52.474;13.710;2023-06-10T12:55:48;30.90;77.70
32749;DHT22;19119;52.474;13.710;2023-06-10T12:58:14;31.00;78.20
32749;DHT22;19119;52.474;13.710;2023-06-10T13:00:40;30.90;77.40
32749;DHT22;19119;52.474;13.710;2023-06-10T13:03:08;30.90;77.30
32749;DHT22;19119;52.474;13.710;2023-06-10T13:05:36;31.10;78.00
32749;DHT22;19119;52.474;13.710;2023-06-10T13:08:07;31.50;78.00
32749;DHT22;19119;52.474;13.710;2023-06-10T13:10:33;31.60;77.50
32749;DHT22;19119;52.474;13.710;2023-06-10T13:13:03;31.10;78.60
32749;DHT22;19119;52.474;13.710;2023-06-10T13:15:33;31.00;79.20
32749;DHT22;19119;52.474;13.710;2023-06-10T13:18:02;31.40;78.10
32749;DHT22;19119;52.474;13.710;2023-06-10T13:20:29;31.00;77.70
32749;DHT22;19119;52.474;13.710;2023-06-10T13:22:55;31.20;78.90
32749;DHT22;19119;52.474;13.710;2023-06-10T13:25:20;31.30;78.00
32749;DHT22;19119;52.474;13.710;2023-06-10T13:27:46;31.20;77.40
32749;DHT22;19119;52.474;13.710;2023-06-10T13:30:12;31.20;77.50
32749;DHT22;19119;52.474;13.710;2023-06-10T13:32:37;31.30;77.60
32749;DHT22;19119;52.474;13.710;2023-06-10T13:35:03;31.90;77.70
32749;DHT22;19119;52.474;13.710;2023-06-10T13:37:29;31.50;78.00
32749;DHT22;19119;52.474;13.710;2023-06-10T13:39:55;31.30;78.30
32749;DHT22;19119;52.474;13.710;2023-06-10T13:42:21;31.30;78.10
32749;DHT22;19119;52.474;13.710;2023-06-10T13:44:47;31.00;78.30
32749;DHT22;19119;52.474;13.710;2023-06-10T13:47:14;30.70;78.10
32749;DHT22;19119;52.474;13.710;2023-06-10T13:49:40;30.90;78.70
32749;DHT22;19119;52.474;13.710;2023-06-10T13:52:06;30.90;77.50
32749;DHT22;19119;52.474;13.710;2023-06-10T13:54:32;30.90;78.20
32749;DHT22;19119;52.474;13.710;2023-06-10T13:56:58;30.80;77.40
32749;DHT22;19119;52.474;13.710;2023-06-10T13:59:25;31.00;77.80
32749;DHT22;19119;52.474;13.710;2023-06-10T14:01:51;31.20;77.70
32749;DHT22;19119;52.474;13.710;2023-06-10T14:04:16;31.30;76.80
32749;DHT22;19119;52.474;13.710;2023-06-10T14:06:42;31.20;77.30
32749;DHT22;19119;52.474;13.710;2023-06-10T14:09:08;31.50;77.70
32749;DHT22;19119;52.474;13.710;2023-06-10T14:11:34;31.10;76.80
32749;DHT22;19119;52.474;13.710;2023-06-10T14:13:59;31.30;77.10
32749;DHT22;19119;52.474;13.710;2023-06-10T14:16:26;31.20;76.60
32749;DHT22;19119;52.474;13.710;2023-06-10T14:18:51;31.30;76.80
32749;DHT22;19119;52.474;13.710;2023-06-10T14:21:17;30.90;77.10
32749;DHT22;19119;52.474;13.710;2023-06-10T14:23:43;30.40;81.70
32749;DHT22;19119;52.474;13.710;2023-06-10T14:26:09;30.40;82.50
32749;DHT22;19119;52.474;13.710;2023-06-10T14:28:34;29.90;79.00
32749;DHT22;19119;52.474;13.710;2023-06-10T14:31:00;29.80;79.30
32749;DHT22;19119;52.474;13.710;2023-06-10T14:33:26;29.40;78.90
32749;DHT22;19119;52.474;13.710;2023-06-10T14:35:51;29.60;79.00
32749;DHT22;19119;52.474;13.710;2023-06-10T14:38:17;29.90;77.50
32749;DHT22;19119;52.474;13.710;2023-06-10T14:40:42;30.50;78.10
32749;DHT22;19119;52.474;13.710;2023-06-10T14:43:08;30.60;77.60
32749;DHT22;19119;52.474;13.710;2023-06-10T14:45:39;30.20;76.40
32749;DHT22;19119;52.474;13.710;2023-06-10T14:48:05;30.30;76.70
32749;DHT22;19119;52.474;13.710;2023-06-10T14:50:31;30.30;76.70
32749;DHT22;19119;52.474;13.710;2023-06-10T14:52:58;30.40;76.40
32749;DHT22;19119;52.474;13.710;2023-06-10T14:55:23;30.60;76.10
32749;DHT22;19119;52.474;13.710;2023-06-10T14:57:49;30.30;75.80
32749;DHT22;19119;52.474;13.710;2023-06-10T15:00:15;30.30;75.50
32749;DHT22;19119;52.474;13.710;2023-06-10T15:02:42;30.40;75.60
32749;DHT22;19119;52.474;13.710;2023-06-10T15:05:08;30.30;74.70
32749;DHT22;19119;52.474;13.710;2023-06-10T15:07:34;30.60;75.50
32749;DHT22;19119;52.474;13.710;2023-06-10T15:09:59;30.50;75.10
32749;DHT22;19119;52.474;13.710;2023-06-10T15:12:25;30.40;74.20
32749;DHT22;19119;52.474;13.710;2023-06-10T15:14:50;30.40;74.20
32749;DHT22;19119;52.474;13.710;2023-06-10T15:17:16;30.60;73.60
32749;DHT22;19119;52.474;13.710;2023-06-10T15:19:41;30.60;74.00
32749;DHT22;19119;52.474;13.710;2023-06-10T15:22:07;30.60;73.00
32749;DHT22;19119;52.474;13.710;2023-06-10T15:24:32;30.60;73.20
32749;DHT22;19119;52.474;13.710;2023-06-10T15:26:58;30.50;72.00
32749;DHT22;19119;52.474;13.710;2023-06-10T15:29:23;30.30;72.10
32749;DHT22;19119;52.474;13.710;2023-06-10T15:31:49;30.30;72.90
32749;DHT22;19119;52.474;13.710;2023-06-10T15:34:15;30.20;71.80
32749;DHT22;19119;52.474;13.710;2023-06-10T15:36:40;30.00;71.70
32749;DHT22;19119;52.474;13.710;2023-06-10T15:39:06;29.80;71.50
32749;DHT22;19119;52.474;13.710;2023-06-10T15:41:33;30.00;71.20